Time;durP1;ratioP1;P1;durP2;ratioP2;P2;SDS_P1;SDS_P2;PMS_P1;PMS_P2;Temp;Humidity;BMP_temperature;BMP_pressure;BME280_temperature;BME280_humidity;BME280_pressure;Samples;Min_cycle;Max_cycle;Signal;HPM_P1;HPM_P2
2023/07/27 00:00:40;;;;;;;2.60;0.88;;;17.50;89.10;;;;;;5092529;28;20036;-75
2023/07/27 00:03:07;;;;;;;1.10;0.80;;;17.50;89.30;;;;;;5092395;28;20024;-75
2023/07/27 00:05:33;;;;;;;1.98;0.73;;;17.40;89.60;;;;;;5092691;28;20053;-75
2023/07/27 00:07:59;;;;;;;2.25;0.68;;;17.40;90.00;;;;;;5092513;28;20024;-76
2023/07/27 00:10:24;;;;;;;1.13;0.50;;;17.30;90.10;;;;;;5094266;28;20017;-75
2023/07/27 00:12:51;;;;;;;3.40;0.77;;;17.30;90.10;;;;;;5096704;28;20043;-74
2023/07/27 00:15:17;;;;;;;2.63;0.80;;;17.30;90.20;;;;;;5097157;28;20389;-75
2023/07/27 00:17:43;;;;;;;4.30;0.85;;;17.30;90.30;;;;;;5096660;28;20017;-75
2023/07/27 00:20:09;;;;;;;2.33;1.30;;;17.30;90.40;;;;;;5096240;28;20024;-75
2023/07/27 00:22:34;;;;;;;3.28;0.80;;;17.20;90.60;;;;;;5096402;28;20024;-76
2023/07/27 00:25:00;;;;;;;4.47;0.80;;;17.30;90.70;;;;;;5096623;28;20039;-73
2023/07/27 00:27:26;;;;;;;3.72;0.70;;;17.20;90.70;;;;;;5096585;28;20032;-75
2023/07/27 00:29:52;;;;;;;2.67;0.60;;;17.30;90.70;;;;;;5096154;28;20028;-75
2023/07/27 00:32:17;;;;;;;3.92;0.63;;;17.20;90.30;;;;;;5095766;28;20038;-75
2023/07/27 00:34:43;;;;;;;3.13;0.70;;;17.20;90.10;;;;;;5096379;28;20020;-77
2023/07/27 00:37:09;;;;;;;0.93;0.50;;;17.20;90.10;;;;;;5096199;28;20028;-75
2023/07/27 00:39:35;;;;;;;1.08;0.50;;;17.20;90.20;;;;;;5095833;28;20044;-76
2023/07/27 00:42:01;;;;;;;2.90;0.75;;;17.20;90.10;;;;;;5095823;28;20432;-74
2023/07/27 00:44:26;;;;;;;1.40;0.60;;;17.20;90.40;;;;;;5095752;28;20057;-75
2023/07/27 00:46:52;;;;;;;2.95;0.75;;;17.10;89.90;;;;;;5096232;28;20034;-75
2023/07/27 00:49:20;;;;;;;3.85;0.85;;;17.20;89.70;;;;;;5095676;28;20058;-75
2023/07/27 00:51:46;;;;;;;2.53;0.70;;;17.20;89.50;;;;;;5077657;28;20027;-75
2023/07/27 00:54:13;;;;;;;2.15;0.73;;;17.10;89.10;;;;;;5095902;28;20470;-75
2023/07/27 00:56:39;;;;;;;3.53;0.70;;;17.20;88.80;;;;;;5095672;28;20491;-74
2023/07/27 00:59:06;;;;;;;1.05;0.63;;;17.20;88.70;;;;;;5093113;28;20134;-74
2023/07/27 01:01:32;;;;;;;3.03;0.63;;;17.10;89.30;;;;;;5092766;28;20107;-76
2023/07/27 01:03:58;;;;;;;4.57;0.70;;;17.10;89.50;;;;;;5093299;28;20039;-75
2023/07/27 01:06:25;;;;;;;6.70;1.40;;;17.00;89.40;;;;;;5095371;28;20028;-75
2023/07/27 01:08:52;;;;;;;2.20;0.70;;;17.00;90.00;;;;;;5095434;28;20055;-75
2023/07/27 01:11:21;;;;;;;4.38;0.68;;;16.90;90.00;;;;;;5095343;28;20020;-75
2023/07/27 01:13:55;;;;;;;2.83;1.20;;;16.90;90.00;;;;;;5095222;28;20403;-75
2023/07/27 01:16:37;;;;;;;1.83;0.90;;;16.80;90.10;;;;;;5095667;28;20031;-75
2023/07/27 01:19:30;;;;;;;2.47;0.77;;;16.80;90.20;;;;;;5095506;28;20023;-75
2023/07/27 01:22:39;;;;;;;4.07;1.13;;;16.80;90.30;;;;;;5093656;28;20054;-75
2023/07/27 01:25:12;;;;;;;0.93;0.70;;;16.70;90.30;;;;;;5095424;28;20081;-75
2023/07/27 01:28:01;;;;;;;2.20;0.65;;;16.70;90.40;;;;;;5076860;28;20055;-75
2023/07/27 01:30:27;;;;;;;2.97;0.73;;;16.70;90.40;;;;;;5081793;28;20078;-75
2023/07/27 01:33:00;;;;;;;3.50;0.80;;;16.70;90.50;;;;;;5094985;28;20032;-75
2023/07/27 01:35:38;;;;;;;7.68;0.90;;;16.60;90.40;;;;;;5095117;28;20020;-75
2023/07/27 01:38:05;;;;;;;7.38;0.70;;;16.60;90.60;;;;;;5095622;28;20052;-74
2023/07/27 01:40:33;;;;;;;3.67;0.70;;;16.60;90.50;;;;;;5095242;28;20438;-75
2023/07/27 01:43:00;;;;;;;5.68;0.85;;;16.50;90.20;;;;;;5095017;28;20523;-75
2023/07/27 01:45:26;;;;;;;3.53;0.80;;;16.50;90.50;;;;;;5094960;28;20023;-76
2023/07/27 01:47:53;;;;;;;1.63;0.65;;;16.40;90.60;;;;;;5094804;28;20103;-75
2023/07/27 01:50:20;;;;;;;0.98;0.45;;;16.40;90.80;;;;;;5095015;28;20031;-75
2023/07/27 01:52:47;;;;;;;6.07;1.00;;;16.30;91.00;;;;;;5094648;28;20032;-75
2023/07/27 01:55:17;;;;;;;5.18;0.80;;;16.30;91.10;;;;;;5094558;28;20020;-75
2023/07/27 01:57:44;;;;;;;3.90;1.00;;;16.30;91.10;;;;;;5094863;28;20050;-75
2023/07/27 02:00:11;;;;;;;4.22;0.68;;;16.30;91.20;;;;;;5094722;28;20025;-75
2023/07/27 02:02:37;;;;;;;1.90;0.80;;;16.20;91.20;;;;;;5094496;28;20028;-75
2023/07/27 02:05:03;;;;;;;1.50;0.65;;;16.30;91.40;;;;;;5094440;28;20538;-76
2023/07/27 02:07:33;;;;;;;3.20;0.70;;;16.30;91.50;;;;;;5094577;28;20099;-75
2023/07/27 02:09:59;;;;;;;0.85;0.57;;;16.20;91.40;;;;;;5094313;28;20066;-75
2023/07/27 02:12:34;;;;;;;2.42;0.80;;;16.20;91.30;;;;;;5094757;28;20054;-73
2023/07/27 02:15:10;;;;;;;2.75;0.80;;;16.20;91.30;;;;;;5094509;28;20024;-75
2023/07/27 02:17:45;;;;;;;1.85;0.75;;;16.20;91.40;;;;;;5094068;28;20028;-74
2023/07/27 02:20:14;;;;;;;2.78;0.73;;;16.20;91.40;;;;;;5094394;28;20031;-75
2023/07/27 02:22:43;;;;;;;1.63;0.75;;;16.20;91.60;;;;;;5094094;28;20023;-74
2023/07/27 02:25:10;;;;;;;2.85;0.77;;;16.20;91.50;;;;;;5094270;28;20020;-75
2023/07/27 02:27:36;;;;;;;1.30;0.70;;;16.10;91.40;;;;;;5093826;28;20370;-76
2023/07/27 02:30:02;;;;;;;3.25;0.93;;;16.10;91.40;;;;;;5093870;28;20427;-75
2023/07/27 02:32:30;;;;;;;5.57;0.82;;;16.10;91.50;;;;;;5075424;28;20036;-75
2023/07/27 02:34:56;;;;;;;3.78;0.80;;;16.10;91.70;;;;;;5094043;28;20065;-75
2023/07/27 02:37:22;;;;;;;4.55;0.70;;;16.10;91.70;;;;;;5093904;28;20024;-75
2023/07/27 02:39:47;;;;;;;5.32;0.90;;;16.10;91.70;;;;;;5093671;28;20054;-76
2023/07/27 02:42:13;;;;;;;5.15;0.65;;;16.10;91.60;;;;;;5093778;28;20435;-75
2023/07/27 02:44:39;;;;;;;2.60;0.80;;;16.10;91.70;;;;;;5093724;28;20047;-75
2023/07/27 02:47:05;;;;;;;7.32;0.90;;;16.10;91.60;;;;;;5093634;28;20103;-75
2023/07/27 02:49:30;;;;;;;3.50;1.10;;;16.00;91.60;;;;;;5094068;28;20024;-75
2023/07/27 02:51:56;;;;;;;1.20;0.63;;;16.00;91.80;;;;;;5093531;28;20027;-75
2023/07/27 02:54:22;;;;;;;2.80;1.00;;;16.00;91.90;;;;;;5093725;28;20089;-75
2023/07/27 02:56:48;;;;;;;2.78;1.02;;;15.90;91.70;;;;;;5093708;28;20420;-75
2023/07/27 02:59:14;;;;;;;0.73;0.70;;;15.90;91.70;;;;;;5093470;28;20024;-75
2023/07/27 03:01:40;;;;;;;2.70;0.80;;;15.90;91.80;;;;;;5093457;28;20023;-75
2023/07/27 03:04:06;;;;;;;2.55;0.90;;;15.90;91.90;;;;;;5093268;28;20028;-75
2023/07/27 03:06:32;;;;;;;6.03;0.98;;;15.90;92.00;;;;;;5093341;28;20020;-75
2023/07/27 03:08:57;;;;;;;5.32;0.90;;;15.90;92.10;;;;;;5093209;28;20046;-75
2023/07/27 03:11:23;;;;;;;7.47;0.90;;;15.90;92.00;;;;;;5093342;28;20023;-74
2023/07/27 03:13:49;;;;;;;1.77;0.68;;;15.90;92.00;;;;;;5093114;28;20035;-76
2023/07/27 03:16:15;;;;;;;2.78;1.10;;;15.90;92.10;;;;;;5093389;28;20024;-75
2023/07/27 03:18:41;;;;;;;1.83;0.80;;;15.90;92.20;;;;;;5093089;28;20031;-75
2023/07/27 03:21:06;;;;;;;2.35;0.90;;;15.90;91.90;;;;;;5075031;28;20024;-75
2023/07/27 03:23:33;;;;;;;6.68;1.00;;;15.80;91.80;;;;;;5093218;28;20028;-75
2023/07/27 03:25:59;;;;;;;4.43;0.98;;;15.80;92.10;;;;;;5092956;28;20462;-75
2023/07/27 03:28:25;;;;;;;7.00;1.00;;;15.90;91.90;;;;;;5092930;28;20103;-75
2023/07/27 03:30:50;;;;;;;3.58;0.73;;;15.90;91.90;;;;;;5074854;28;20107;-75
2023/07/27 03:33:16;;;;;;;5.05;1.02;;;15.80;91.90;;;;;;5092958;28;20032;-75
2023/07/27 03:35:42;;;;;;;3.70;1.13;;;15.90;91.80;;;;;;5092792;28;20050;-75
2023/07/27 03:38:08;;;;;;;10.93;1.17;;;15.90;91.70;;;;;;5092717;28;20050;-75
2023/07/27 03:40:33;;;;;;;2.72;0.98;;;15.90;91.70;;;;;;5092288;28;20024;-76
2023/07/27 03:42:59;;;;;;;3.70;1.17;;;15.80;91.70;;;;;;5092638;28;20063;-75
2023/07/27 03:45:25;;;;;;;3.30;1.05;;;15.80;91.70;;;;;;5092573;28;20044;-76
2023/07/27 03:47:50;;;;;;;2.10;0.85;;;15.80;91.60;;;;;;5074889;28;20028;-76
2023/07/27 03:50:16;;;;;;;2.72;0.90;;;15.80;91.70;;;;;;5092989;28;20031;-75
2023/07/27 03:52:42;;;;;;;1.92;0.70;;;15.80;91.70;;;;;;5092828;28;20028;-75
2023/07/27 03:55:08;;;;;;;2.30;0.93;;;15.80;91.40;;;;;;5092761;28;20051;-75
2023/07/27 03:57:34;;;;;;;6.43;1.00;;;15.80;91.40;;;;;;5092622;28;20020;-75
2023/07/27 04:00:00;;;;;;;2.55;0.82;;;15.80;91.30;;;;;;5092525;28;20482;-75
2023/07/27 04:02:27;;;;;;;5.60;0.85;;;15.80;91.30;;;;;;5092655;28;20028;-75
2023/07/27 04:04:53;;;;;;;4.47;0.90;;;15.80;91.40;;;;;;5092639;28;20399;-73
2023/07/27 04:07:19;;;;;;;3.92;0.95;;;15.80;91.30;;;;;;5092282;28;20107;-72
2023/07/27 04:09:45;;;;;;;1.05;0.63;;;15.90;91.10;;;;;;5092542;28;20035;-72
2023/07/27 04:12:11;;;;;;;5.28;0.75;;;15.90;91.10;;;;;;5074229;28;20043;-74
2023/07/27 04:14:37;;;;;;;2.10;0.80;;;16.00;91.10;;;;;;5092341;28;20381;-73
2023/07/27 04:17:04;;;;;;;2.80;0.85;;;16.00;91.10;;;;;;5092075;28;20042;-73
2023/07/27 04:19:30;;;;;;;7.45;0.80;;;16.00;91.00;;;;;;5092313;28;20031;-73
2023/07/27 04:21:55;;;;;;;3.03;0.70;;;16.00;91.10;;;;;;5092108;28;20413;-74
2023/07/27 04:24:21;;;;;;;2.42;0.90;;;16.10;91.00;;;;;;5092653;28;20016;-74
2023/07/27 04:26:47;;;;;;;2.67;1.17;;;16.10;90.80;;;;;;5092429;28;20048;-73
2023/07/27 04:29:12;;;;;;;3.60;0.80;;;16.10;90.80;;;;;;5092690;28;20020;-74
2023/07/27 04:31:38;;;;;;;1.92;0.80;;;16.10;90.80;;;;;;5092507;28;20030;-74
2023/07/27 04:34:04;;;;;;;7.15;1.15;;;16.10;91.10;;;;;;5091990;28;20054;-73
2023/07/27 04:36:30;;;;;;;3.05;0.80;;;16.10;91.00;;;;;;5073941;28;20065;-74
2023/07/27 04:38:56;;;;;;;1.40;0.70;;;16.10;90.90;;;;;;5091971;28;20032;-74
2023/07/27 04:41:23;;;;;;;2.00;1.00;;;16.10;90.80;;;;;;5090234;28;20052;-74
2023/07/27 04:43:48;;;;;;;3.30;0.65;;;16.10;90.80;;;;;;5090472;28;20477;-73
2023/07/27 04:46:14;;;;;;;1.65;0.90;;;16.10;90.90;;;;;;5090657;28;20139;-74
2023/07/27 04:48:40;;;;;;;3.63;1.10;;;16.10;90.90;;;;;;5091358;28;20085;-74
2023/07/27 04:51:06;;;;;;;1.58;0.90;;;16.10;90.80;;;;;;5091855;28;20024;-72
2023/07/27 04:53:31;;;;;;;6.70;1.92;;;16.10;90.90;;;;;;5091743;28;20039;-73
2023/07/27 04:55:57;;;;;;;2.85;0.85;;;16.10;90.90;;;;;;5093340;28;20050;-73
2023/07/27 04:58:23;;;;;;;3.00;0.63;;;16.10;90.90;;;;;;5095083;28;20381;-73
2023/07/27 05:00:55;;;;;;;1.40;0.80;;;16.10;90.80;;;;;;5095713;28;20205;-73
2023/07/27 05:03:21;;;;;;;7.25;0.80;;;16.20;90.80;;;;;;5096321;28;20504;-74
2023/07/27 05:05:47;;;;;;;2.47;0.80;;;16.20;90.80;;;;;;5096237;28;20366;-73
2023/07/27 05:08:13;;;;;;;1.10;0.90;;;16.30;90.90;;;;;;5096106;28;20026;-73
2023/07/27 05:10:40;;;;;;;1.70;1.00;;;16.30;90.90;;;;;;5095793;28;20024;-73
2023/07/27 05:13:06;;;;;;;1.77;0.90;;;16.30;90.90;;;;;;5095719;28;20114;-73
2023/07/27 05:15:32;;;;;;;5.68;1.83;;;16.30;91.30;;;;;;5095980;28;20028;-73
2023/07/27 05:17:58;;;;;;;2.33;1.17;;;16.40;91.00;;;;;;5096025;28;20077;-74
2023/07/27 05:20:23;;;;;;;6.65;1.17;;;16.40;90.90;;;;;;5095852;28;20028;-73
2023/07/27 05:22:49;;;;;;;2.38;0.85;;;16.40;91.00;;;;;;5095999;28;20085;-73
2023/07/27 05:25:15;;;;;;;5.45;1.02;;;16.50;91.00;;;;;;5095592;28;20097;-73
2023/07/27 05:27:40;;;;;;;2.28;1.10;;;16.40;90.90;;;;;;5095498;28;20020;-73
2023/07/27 05:30:07;;;;;;;4.03;1.00;;;16.50;90.70;;;;;;5095769;28;20419;-73
2023/07/27 05:32:32;;;;;;;4.70;1.00;;;16.60;90.50;;;;;;5095634;28;20032;-73
2023/07/27 05:34:58;;;;;;;1.88;1.08;;;16.60;90.50;;;;;;5095515;28;20028;-74
2023/07/27 05:37:24;;;;;;;2.63;1.10;;;16.60;90.30;;;;;;5095467;28;20020;-74
2023/07/27 05:39:50;;;;;;;4.20;1.13;;;16.60;90.20;;;;;;5095679;28;20099;-73
2023/07/27 05:42:15;;;;;;;2.03;1.20;;;16.70;90.10;;;;;;5095412;28;20055;-72
2023/07/27 05:44:41;;;;;;;1.67;0.95;;;16.70;90.00;;;;;;5094871;28;20508;-76
2023/07/27 05:47:07;;;;;;;1.73;0.80;;;16.80;90.00;;;;;;5094984;28;20016;-75
2023/07/27 05:49:33;;;;;;;2.25;1.02;;;16.80;89.80;;;;;;5095012;28;20031;-76
2023/07/27 05:51:58;;;;;;;2.45;1.00;;;16.90;89.60;;;;;;5095104;28;20035;-75
2023/07/27 05:54:25;;;;;;;2.63;0.80;;;16.90;89.60;;;;;;5096448;28;20036;-76
2023/07/27 05:56:51;;;;;;;3.42;1.00;;;16.90;89.40;;;;;;5077425;28;20489;-74
2023/07/27 05:59:17;;;;;;;1.92;0.80;;;17.00;89.30;;;;;;5095197;28;20029;-74
2023/07/27 06:01:42;;;;;;;5.22;1.10;;;17.00;89.20;;;;;;5094886;28;20050;-74
2023/07/27 06:04:08;;;;;;;1.73;0.90;;;17.10;89.50;;;;;;5094883;28;20031;-75
2023/07/27 06:06:35;;;;;;;3.10;1.27;;;17.10;89.60;;;;;;5094621;28;20051;-74
2023/07/27 06:09:01;;;;;;;5.47;1.00;;;17.10;89.50;;;;;;5094686;28;20020;-76
2023/07/27 06:11:27;;;;;;;5.45;1.00;;;17.20;89.30;;;;;;5094789;28;20024;-74
2023/07/27 06:13:53;;;;;;;4.32;0.90;;;17.20;88.80;;;;;;5094717;28;20063;-75
2023/07/27 06:16:19;;;;;;;1.88;0.75;;;17.20;88.60;;;;;;5094525;28;20016;-76
2023/07/27 06:18:44;;;;;;;2.08;1.00;;;17.30;88.50;;;;;;5094738;28;20039;-75
2023/07/27 06:21:10;;;;;;;3.30;0.80;;;17.30;88.30;;;;;;5092680;28;20027;-76
2023/07/27 06:23:36;;;;;;;1.65;1.08;;;17.40;87.90;;;;;;5090658;28;20020;-74
2023/07/27 06:26:01;;;;;;;1.85;0.88;;;17.40;87.60;;;;;;5055629;28;20035;-75
2023/07/27 06:28:27;;;;;;;0.80;0.65;;;17.50;87.20;;;;;;5073952;28;20074;-74
2023/07/27 06:30:53;;;;;;;4.53;1.10;;;17.50;86.90;;;;;;5072569;28;20074;-73
2023/07/27 06:33:19;;;;;;;4.00;0.80;;;17.60;86.70;;;;;;5072786;28;20063;-73
2023/07/27 06:35:44;;;;;;;1.20;0.80;;;17.60;86.80;;;;;;5072903;28;20063;-71
2023/07/27 06:38:10;;;;;;;4.25;0.80;;;17.70;87.20;;;;;;5072124;28;20052;-74
2023/07/27 06:40:36;;;;;;;3.25;0.90;;;17.70;87.20;;;;;;5072021;28;20029;-74
2023/07/27 06:43:02;;;;;;;7.63;1.20;;;17.70;86.70;;;;;;5072981;28;20525;-73
2023/07/27 06:45:28;;;;;;;1.92;1.00;;;17.80;86.40;;;;;;5073626;28;20052;-73
2023/07/27 06:47:53;;;;;;;3.25;1.00;;;17.80;85.90;;;;;;5073256;28;20036;-74
2023/07/27 06:50:19;;;;;;;3.55;0.90;;;17.90;86.20;;;;;;5073545;28;20046;-74
2023/07/27 06:52:45;;;;;;;1.67;0.90;;;17.90;85.30;;;;;;5073783;28;20032;-74
2023/07/27 06:55:11;;;;;;;2.22;0.95;;;18.00;85.30;;;;;;5073690;28;20025;-74
2023/07/27 06:57:36;;;;;;;5.50;1.08;;;18.00;85.60;;;;;;5073739;28;20032;-74
2023/07/27 07:00:03;;;;;;;2.95;1.02;;;18.10;86.40;;;;;;5073701;28;20484;-74
2023/07/27 07:02:29;;;;;;;2.00;0.90;;;18.10;86.40;;;;;;5073389;28;20362;-73
2023/07/27 07:04:54;;;;;;;5.60;0.90;;;18.20;86.30;;;;;;5073266;28;20033;-74
2023/07/27 07:07:20;;;;;;;4.28;0.93;;;18.30;86.70;;;;;;5073729;28;20032;-73
2023/07/27 07:09:46;;;;;;;1.60;0.93;;;18.40;87.10;;;;;;5073315;28;20545;-74
2023/07/27 07:12:12;;;;;;;2.53;0.93;;;18.40;86.30;;;;;;5072831;28;20119;-74
2023/07/27 07:14:38;;;;;;;1.30;0.90;;;18.50;85.20;;;;;;5072788;28;20024;-73
2023/07/27 07:17:04;;;;;;;2.67;0.98;;;18.50;85.30;;;;;;5073035;28;20020;-74
2023/07/27 07:19:30;;;;;;;1.42;1.17;;;18.60;84.70;;;;;;5072824;28;20024;-74
2023/07/27 07:21:56;;;;;;;1.90;0.82;;;18.60;83.80;;;;;;5073122;28;20032;-73
2023/07/27 07:24:22;;;;;;;2.17;1.00;;;18.80;84.10;;;;;;5073192;28;20408;-74
2023/07/27 07:26:48;;;;;;;1.77;0.93;;;18.80;84.90;;;;;;5072929;28;20074;-74
2023/07/27 07:29:13;;;;;;;3.50;0.90;;;18.80;85.10;;;;;;5072940;28;20024;-73
2023/07/27 07:31:39;;;;;;;2.20;0.90;;;19.00;85.00;;;;;;5072927;28;20032;-73
2023/07/27 07:34:05;;;;;;;1.10;0.70;;;18.90;84.50;;;;;;5072913;28;20032;-73
2023/07/27 07:36:30;;;;;;;1.33;0.95;;;19.00;83.70;;;;;;5072940;28;20070;-74
2023/07/27 07:38:56;;;;;;;4.72;1.77;;;19.00;82.90;;;;;;5073167;28;20025;-74
2023/07/27 07:41:22;;;;;;;1.63;1.25;;;19.00;82.60;;;;;;5073006;28;20086;-74
2023/07/27 07:43:48;;;;;;;2.45;1.40;;;19.10;83.30;;;;;;5072789;28;20048;-74
2023/07/27 07:46:14;;;;;;;1.58;0.90;;;19.20;82.80;;;;;;5070265;28;20482;-74
2023/07/27 07:48:40;;;;;;;4.55;1.02;;;19.20;82.50;;;;;;5072244;28;20104;-73
2023/07/27 07:51:14;;;;;;;1.95;1.15;;;19.30;80.80;;;;;;5089676;28;20381;-74
2023/07/27 07:53:40;;;;;;;1.88;0.82;;;19.40;80.60;;;;;;5092287;28;21049;-73
2023/07/27 07:56:13;;;;;;;2.05;1.00;;;19.40;80.40;;;;;;5092919;28;20105;-73
2023/07/27 07:58:39;;;;;;;2.75;1.20;;;19.50;80.50;;;;;;5092907;28;20024;-74
2023/07/27 08:01:04;;;;;;;3.15;1.13;;;19.50;80.10;;;;;;5093070;28;20035;-73
2023/07/27 08:03:30;;;;;;;2.13;1.00;;;19.60;79.80;;;;;;5093004;28;20025;-74
2023/07/27 08:05:57;;;;;;;2.25;1.10;;;19.60;79.30;;;;;;5092675;28;20051;-73
2023/07/27 08:08:22;;;;;;;2.17;1.10;;;19.70;80.10;;;;;;5092634;28;20405;-73
2023/07/27 08:10:48;;;;;;;1.27;0.90;;;19.80;80.30;;;;;;5093032;28;20115;-73
2023/07/27 08:13:14;;;;;;;1.30;0.90;;;19.80;79.70;;;;;;5092691;28;20820;-74
2023/07/27 08:15:40;;;;;;;3.42;0.98;;;19.90;78.90;;;;;;5092603;28;20028;-74
2023/07/27 08:18:05;;;;;;;3.10;1.30;;;20.00;79.50;;;;;;5092274;28;20103;-72
2023/07/27 08:20:31;;;;;;;1.50;1.10;;;20.00;79.00;;;;;;5092397;28;20020;-74
2023/07/27 08:22:57;;;;;;;1.52;1.25;;;20.10;78.40;;;;;;5092609;28;20024;-73
2023/07/27 08:25:23;;;;;;;2.40;0.98;;;20.20;78.50;;;;;;5092634;28;20099;-74
2023/07/27 08:27:50;;;;;;;3.85;0.95;;;20.20;77.60;;;;;;5092638;28;20116;-73
2023/07/27 08:30:16;;;;;;;1.52;1.00;;;20.30;77.10;;;;;;5074130;28;20020;-74
2023/07/27 08:32:41;;;;;;;2.67;1.08;;;20.30;77.80;;;;;;5096478;28;20436;-71
2023/07/27 08:35:08;;;;;;;1.65;1.08;;;20.40;77.90;;;;;;5096608;28;20028;-71
2023/07/27 08:37:33;;;;;;;3.35;1.05;;;20.50;78.30;;;;;;5096489;28;20516;-71
2023/07/27 08:39:59;;;;;;;1.98;0.88;;;20.60;77.50;;;;;;5096706;28;20052;-73
2023/07/27 08:42:25;;;;;;;2.20;1.50;;;20.60;77.40;;;;;;5096345;28;20127;-74
2023/07/27 08:44:51;;;;;;;1.50;1.10;;;20.70;75.30;;;;;;5096518;28;20016;-73
2023/07/27 08:47:18;;;;;;;1.50;1.10;;;20.80;73.90;;;;;;5096613;28;20032;-74
2023/07/27 08:49:45;;;;;;;1.65;1.17;;;20.90;74.00;;;;;;5096464;28;20020;-73
2023/07/27 08:52:15;;;;;;;4.10;1.23;;;20.90;70.70;;;;;;5096173;28;20496;-70
2023/07/27 08:54:40;;;;;;;5.47;1.30;;;20.90;70.90;;;;;;5095917;28;20032;-70
2023/07/27 08:57:06;;;;;;;2.15;1.08;;;21.00;71.60;;;;;;5093925;28;20017;-71
2023/07/27 08:59:33;;;;;;;2.30;1.20;;;21.00;70.00;;;;;;5093910;28;20052;-70
2023/07/27 09:01:59;;;;;;;1.95;1.30;;;21.10;70.10;;;;;;5093988;28;20027;-70
2023/07/27 09:04:24;;;;;;;7.05;1.30;;;21.10;69.80;;;;;;5093887;28;20641;-71
2023/07/27 09:06:50;;;;;;;1.98;1.30;;;21.20;68.10;;;;;;5094127;28;20028;-70
2023/07/27 09:09:23;;;;;;;2.33;1.30;;;21.30;67.30;;;;;;5094050;28;20025;-73
2023/07/27 09:11:49;;;;;;;1.48;1.10;;;21.30;65.70;;;;;;5095532;28;20020;-73
2023/07/27 09:14:18;;;;;;;2.90;1.02;;;21.40;63.90;;;;;;5095818;28;20023;-72
2023/07/27 09:16:44;;;;;;;1.73;1.30;;;21.40;64.30;;;;;;5095803;28;20013;-70
2023/07/27 09:19:11;;;;;;;2.00;1.42;;;21.50;65.70;;;;;;5095852;28;20058;-74
2023/07/27 09:21:42;;;;;;;2.30;1.58;;;21.60;65.40;;;;;;5095826;28;20028;-70
2023/07/27 09:24:14;;;;;;;1.23;1.00;;;21.70;64.30;;;;;;5095903;28;20058;-70
2023/07/27 09:26:45;;;;;;;10.40;1.85;;;21.80;65.20;;;;;;5095650;28;20024;-74
2023/07/27 09:29:11;;;;;;;1.60;1.15;;;21.80;63.70;;;;;;5095700;28;20024;-72
2023/07/27 09:31:49;;;;;;;2.13;1.30;;;21.90;62.00;;;;;;5095711;28;20019;-73
2023/07/27 09:34:16;;;;;;;1.40;1.30;;;22.00;60.90;;;;;;5095676;28;20367;-70
2023/07/27 09:36:42;;;;;;;2.25;1.40;;;22.00;59.50;;;;;;5095471;28;20030;-69
2023/07/27 09:39:09;;;;;;;8.05;1.15;;;22.10;62.00;;;;;;5095367;28;20020;-70
2023/07/27 09:41:35;;;;;;;5.57;1.55;;;22.20;63.10;;;;;;5095065;28;20036;-70
2023/07/27 09:44:02;;;;;;;1.58;1.30;;;22.30;60.50;;;;;;5094366;28;20496;-70
2023/07/27 09:46:29;;;;;;;2.65;1.42;;;22.40;56.40;;;;;;5095247;28;20024;-69
2023/07/27 09:48:59;;;;;;;2.25;1.35;;;22.40;57.40;;;;;;5095410;28;20028;-70
2023/07/27 09:51:27;;;;;;;1.80;1.30;;;22.40;60.30;;;;;;5095345;28;20032;-70
2023/07/27 09:53:54;;;;;;;1.42;0.95;;;22.50;60.30;;;;;;5095064;28;20020;-71
2023/07/27 09:56:21;;;;;;;1.90;1.50;;;22.60;59.90;;;;;;5095326;28;20028;-73
2023/07/27 09:58:47;;;;;;;2.20;1.30;;;22.60;56.00;;;;;;5095214;28;20016;-73
2023/07/27 10:01:13;;;;;;;3.30;1.45;;;22.70;57.40;;;;;;5095089;28;20032;-73
2023/07/27 10:03:39;;;;;;;2.28;1.40;;;22.70;56.20;;;;;;5095067;28;20013;-74
2023/07/27 10:06:06;;;;;;;2.08;1.42;;;22.80;57.00;;;;;;5094961;28;20023;-72
2023/07/27 10:08:35;;;;;;;1.70;1.25;;;22.80;55.60;;;;;;5095181;28;20477;-73
2023/07/27 10:11:01;;;;;;;2.42;1.30;;;22.90;54.60;;;;;;5076845;28;20026;-74
2023/07/27 10:13:27;;;;;;;2.17;1.40;;;23.00;53.00;;;;;;5094999;28;20035;-73
2023/07/27 10:15:54;;;;;;;1.88;1.30;;;23.10;54.70;;;;;;5094868;28;20024;-72
2023/07/27 10:18:25;;;;;;;3.88;1.40;;;23.20;55.80;;;;;;5094607;28;20028;-72
2023/07/27 10:20:53;;;;;;;1.48;1.20;;;23.20;56.40;;;;;;5094812;28;20468;-72
2023/07/27 10:23:28;;;;;;;1.95;1.33;;;23.30;52.90;;;;;;5094720;28;20032;-73
2023/07/27 10:25:56;;;;;;;1.55;1.17;;;23.30;52.50;;;;;;5094853;28;20436;-72
2023/07/27 10:28:47;;;;;;;3.17;1.30;;;23.40;53.30;;;;;;5094516;28;20020;-73
2023/07/27 10:31:24;;;;;;;1.92;1.33;;;23.40;53.20;;;;;;5094412;28;20069;-71
2023/07/27 10:34:26;;;;;;;1.38;1.20;;;23.60;56.30;;;;;;5094624;28;20043;-74
2023/07/27 10:36:57;;;;;;;1.55;1.27;;;23.60;54.50;;;;;;4992779;28;20037;-73
2023/07/27 10:39:37;;;;;;;1.50;1.30;;;23.70;52.40;;;;;;5078141;28;20185;-73
2023/07/27 10:42:03;;;;;;;3.00;1.30;;;23.80;54.20;;;;;;5094213;28;20097;-73
2023/07/27 10:44:42;;;;;;;1.83;1.13;;;23.90;54.00;;;;;;5094448;28;20031;-70
2023/07/27 10:47:10;;;;;;;2.47;1.00;;;24.00;54.90;;;;;;5094154;28;20074;-70
2023/07/27 10:49:40;;;;;;;3.25;1.13;;;24.10;53.40;;;;;;5094122;28;20059;-70
2023/07/27 10:52:07;;;;;;;1.30;1.05;;;24.20;53.70;;;;;;5093798;28;20016;-71
2023/07/27 10:54:38;;;;;;;1.80;1.25;;;24.20;53.50;;;;;;5094040;28;20035;-70
2023/07/27 10:57:07;;;;;;;3.13;1.13;;;24.30;53.70;;;;;;5093981;28;20503;-70
2023/07/27 10:59:37;;;;;;;1.70;1.30;;;24.40;53.00;;;;;;5094203;28;20269;-71
2023/07/27 11:02:08;;;;;;;1.88;1.23;;;24.50;52.80;;;;;;5093910;28;20023;-70
2023/07/27 11:04:34;;;;;;;1.73;1.15;;;24.50;52.50;;;;;;5093989;28;20094;-70
2023/07/27 11:07:00;;;;;;;2.60;1.27;;;24.60;53.30;;;;;;5093858;28;20024;-69
2023/07/27 11:09:26;;;;;;;2.67;1.35;;;24.60;53.90;;;;;;5093730;28;20027;-71
2023/07/27 11:12:00;;;;;;;1.50;1.10;;;24.70;52.80;;;;;;5075304;28;20576;-71
2023/07/27 11:14:26;;;;;;;1.38;1.10;;;24.80;51.00;;;;;;5093556;28;20101;-71
2023/07/27 11:16:52;;;;;;;3.03;0.95;;;24.80;51.40;;;;;;5093665;28;20034;-71
2023/07/27 11:19:18;;;;;;;1.05;0.93;;;24.90;51.00;;;;;;5093669;28;20442;-71
2023/07/27 11:21:44;;;;;;;1.33;1.10;;;24.90;51.70;;;;;;5093559;28;20046;-71
2023/07/27 11:24:11;;;;;;;1.55;1.20;;;25.00;51.90;;;;;;5093665;28;20127;-71
2023/07/27 11:26:37;;;;;;;1.58;1.10;;;25.10;50.50;;;;;;5093564;28;20062;-71
2023/07/27 11:29:04;;;;;;;1.30;1.00;;;25.10;51.00;;;;;;5093397;28;20097;-71
2023/07/27 11:31:29;;;;;;;1.42;1.20;;;25.20;48.20;;;;;;5075231;28;20477;-71
2023/07/27 11:33:59;;;;;;;4.88;0.98;;;25.20;47.40;;;;;;5093253;28;20038;-71
2023/07/27 11:36:32;;;;;;;1.23;0.80;;;25.30;47.30;;;;;;5093388;28;20426;-71
2023/07/27 11:38:59;;;;;;;1.08;0.98;;;25.30;46.90;;;;;;5093442;28;20489;-72
2023/07/27 11:41:27;;;;;;;1.63;1.02;;;25.40;49.60;;;;;;5093126;28;20044;-72
2023/07/27 11:43:55;;;;;;;1.38;0.88;;;25.40;49.60;;;;;;5093093;28;20440;-72
2023/07/27 11:46:22;;;;;;;1.13;1.00;;;25.50;46.40;;;;;;5093025;28;20030;-70
2023/07/27 11:48:50;;;;;;;1.08;0.95;;;25.50;47.60;;;;;;5093393;28;20489;-71
2023/07/27 11:51:17;;;;;;;2.45;1.00;;;25.50;48.90;;;;;;5093177;28;20032;-73
2023/07/27 11:53:45;;;;;;;1.75;1.10;;;25.60;49.10;;;;;;5074946;28;20092;-72
2023/07/27 11:56:11;;;;;;;1.30;1.05;;;25.60;50.30;;;;;;5093067;28;20169;-73
2023/07/27 11:58:37;;;;;;;0.82;0.80;;;25.60;48.00;;;;;;5092806;28;20017;-72
2023/07/27 12:01:03;;;;;;;3.30;0.90;;;25.70;50.90;;;;;;5092694;28;20394;-73
2023/07/27 12:03:31;;;;;;;0.90;0.75;;;25.70;49.10;;;;;;5092813;28;20030;-73
2023/07/27 12:05:57;;;;;;;1.88;0.73;;;25.70;46.80;;;;;;5092183;28;20024;-74
2023/07/27 12:08:23;;;;;;;2.13;0.98;;;25.70;47.70;;;;;;5092092;28;20031;-71
2023/07/27 12:10:54;;;;;;;1.10;1.00;;;25.80;46.60;;;;;;5092034;28;20028;-71
2023/07/27 12:13:24;;;;;;;1.65;0.95;;;25.80;49.10;;;;;;5092319;28;20039;-70
2023/07/27 12:16:05;;;;;;;1.70;0.95;;;25.90;47.30;;;;;;5092628;28;20048;-70
2023/07/27 12:18:31;;;;;;;1.60;0.95;;;25.90;47.20;;;;;;5092443;28;20020;-71
2023/07/27 12:20:58;;;;;;;1.17;1.02;;;25.80;46.80;;;;;;5092249;28;20031;-71
2023/07/27 12:23:28;;;;;;;1.98;1.30;;;25.70;47.90;;;;;;5092062;28;20028;-71
2023/07/27 12:25:55;;;;;;;3.10;1.13;;;25.70;46.80;;;;;;5092532;28;20030;-71
2023/07/27 12:28:21;;;;;;;1.98;1.00;;;25.60;48.90;;;;;;5092547;28;20057;-71
2023/07/27 12:30:47;;;;;;;1.35;1.05;;;25.60;48.70;;;;;;5091620;28;20027;-71
2023/07/27 12:33:13;;;;;;;2.17;1.00;;;25.50;50.20;;;;;;5091495;28;20036;-71
2023/07/27 12:35:39;;;;;;;5.03;0.95;;;25.50;51.30;;;;;;5091706;28;20138;-71
2023/07/27 12:38:06;;;;;;;1.17;0.93;;;25.50;50.30;;;;;;5091190;28;20036;-71
2023/07/27 12:40:31;;;;;;;1.67;1.02;;;25.50;48.90;;;;;;5090509;28;20013;-70
2023/07/27 12:42:58;;;;;;;1.40;1.00;;;25.50;48.10;;;;;;5090640;28;20075;-70
2023/07/27 12:45:26;;;;;;;2.45;1.10;;;25.40;50.80;;;;;;5092582;28;20023;-70
2023/07/27 12:47:53;;;;;;;1.73;0.95;;;25.40;49.10;;;;;;5092454;28;20043;-70